Armstrong, IA

1:54 AM CST on March 01, 2015 (GMT -0600)
Estherville Municipal | Change Station
CLOSE
Current Station
Airport
Location: Estherville,
Elevation: 1316 ft
Nearby Weather Stations

Elev 1316 ft 43.40 °N, 94.75 °W | Updated 1 hour ago

Clear
Clear
11 °F
Feels Like -3 °F
N
12
Wind Variable Wind from South

Today
High -- | Low -- °F
--% Chance of Precip.
Yesterday
High -- | Low -- °F
Precip. -- in
6:54 AM 6:06 PM
Waxing Gibbous, 83% visible
Pressure 30.35 in
Visibility 9.0 miles
Clouds Clear
Windchill -3 °F
Dew Point 8 °F
Humidity 88%
Rainfall 0.00 in
Snow Depth Not available.
UV 0 out of 12
Pollen .40 out of 12
Air Quality Not available.
Flu Activity Not available.
METAR KEST 010652Z AUTO 19010KT 9SM CLR M12/M13 A3027 RMK AO2 SLP275 I1000 T11171133

More Conditions Fewer Conditions

Pressure 30.35 in
Visibility 9.0 miles
Clouds Clear
Windchill -3 °F
Dew Point 8 °F
Humidity 88%
Rainfall 0.00 in
Snow Depth Not available.
UV 0 out of 12
Pollen .40 out of 12
Air Quality Not available.
Flu Activity Not available.
METAR KEST 010652Z AUTO 19010KT 9SM CLR M12/M13 A3027 RMK AO2 SLP275 I1000 T11171133

More Conditions Fewer Conditions

10-Day Weather Forecast

Almanac

Astronomy

Mar. 01, 2015 Rise Set
Actual Time
Civil Twilight
Nautical Twilight
Astronomical Twilight
Moon
Length of Visible Light
Length of Day
Tomorrow will be .
, % of the Moon is Illuminated

Today's Extremes

State Highs State Lows

Community

WunderPhotos

Upload Photos

1,801,347 photos uploaded!

WunderBlogs® & News

Nearby

Air Quality

  Air Quality AQ Index Pollutant
Not available.

Snow Depth

Station Depth Elevation

Earthquake Activity

City Distance Mag. Time & Date
Minimum magnitude displayed is 2.5.

Coastal Water Temperatures

Place Temperature

Nearby Weather Stations